sensor_id;sensor_type;location;lat;lon;timestamp;P1;durP1;ratioP1;P2;durP2;ratioP2
53287;SDS011;39172;45.550;12.072;2023-08-17T00:01:15;2.17;;;1.98;;
53287;SDS011;39172;45.550;12.072;2023-08-17T00:07:17;2.70;;;2.50;;
53287;SDS011;39172;45.550;12.072;2023-08-17T00:13:18;2.95;;;2.75;;
53287;SDS011;39172;45.550;12.072;2023-08-17T00:19:19;2.95;;;2.67;;
53287;SDS011;39172;45.550;12.072;2023-08-17T00:25:20;3.10;;;2.90;;
53287;SDS011;39172;45.550;12.072;2023-08-17T00:31:21;3.88;;;3.47;;
53287;SDS011;39172;45.550;12.072;2023-08-17T00:37:22;3.83;;;3.42;;
53287;SDS011;39172;45.550;12.072;2023-08-17T00:43:23;3.80;;;3.28;;
53287;SDS011;39172;45.550;12.072;2023-08-17T00:49:24;3.35;;;3.05;;
53287;SDS011;39172;45.550;12.072;2023-08-17T00:55:25;3.20;;;3.00;;
53287;SDS011;39172;45.550;12.072;2023-08-17T01:01:26;2.97;;;2.67;;
53287;SDS011;39172;45.550;12.072;2023-08-17T01:07:27;3.33;;;3.03;;
53287;SDS011;39172;45.550;12.072;2023-08-17T01:14:03;3.30;;;3.00;;
53287;SDS011;39172;45.550;12.072;2023-08-17T01:19:56;2.88;;;2.67;;
53287;SDS011;39172;45.550;12.072;2023-08-17T01:25:58;2.90;;;2.70;;
53287;SDS011;39172;45.550;12.072;2023-08-17T01:38:07;2.67;;;2.47;;
53287;SDS011;39172;45.550;12.072;2023-08-17T01:44:10;2.78;;;2.58;;
53287;SDS011;39172;45.550;12.072;2023-08-17T01:50:11;3.15;;;2.85;;
53287;SDS011;39172;45.550;12.072;2023-08-17T01:56:12;2.80;;;2.60;;
53287;SDS011;39172;45.550;12.072;2023-08-17T02:02:14;3.30;;;3.00;;
53287;SDS011;39172;45.550;12.072;2023-08-17T02:08:15;2.97;;;2.70;;
53287;SDS011;39172;45.550;12.072;2023-08-17T02:14:17;3.50;;;3.20;;
53287;SDS011;39172;45.550;12.072;2023-08-17T02:20:18;3.72;;;3.42;;
53287;SDS011;39172;45.550;12.072;2023-08-17T02:26:19;3.80;;;3.50;;
53287;SDS011;39172;45.550;12.072;2023-08-17T02:32:21;3.70;;;3.40;;
53287;SDS011;39172;45.550;12.072;2023-08-17T02:38:22;3.42;;;3.13;;
53287;SDS011;39172;45.550;12.072;2023-08-17T02:44:23;3.40;;;3.10;;
53287;SDS011;39172;45.550;12.072;2023-08-17T02:50:24;2.97;;;2.78;;
53287;SDS011;39172;45.550;12.072;2023-08-17T02:56:25;2.90;;;2.70;;
53287;SDS011;39172;45.550;12.072;2023-08-17T03:02:27;3.17;;;2.53;;
53287;SDS011;39172;45.550;12.072;2023-08-17T03:08:28;2.17;;;1.98;;
53287;SDS011;39172;45.550;12.072;2023-08-17T03:14:29;2.40;;;2.20;;
53287;SDS011;39172;45.550;12.072;2023-08-17T03:20:30;2.40;;;2.17;;
53287;SDS011;39172;45.550;12.072;2023-08-17T03:26:32;2.78;;;2.30;;
53287;SDS011;39172;45.550;12.072;2023-08-17T03:32:34;2.97;;;2.78;;
53287;SDS011;39172;45.550;12.072;2023-08-17T03:38:35;3.50;;;3.20;;
53287;SDS011;39172;45.550;12.072;2023-08-17T03:44:38;3.42;;;3.13;;
53287;SDS011;39172;45.550;12.072;2023-08-17T03:50:40;3.35;;;3.05;;
53287;SDS011;39172;45.550;12.072;2023-08-17T03:56:41;3.60;;;3.30;;
53287;SDS011;39172;45.550;12.072;2023-08-17T04:02:42;4.15;;;3.85;;
53287;SDS011;39172;45.550;12.072;2023-08-17T04:08:47;4.32;;;4.00;;
53287;SDS011;39172;45.550;12.072;2023-08-17T04:14:48;3.50;;;3.20;;
53287;SDS011;39172;45.550;12.072;2023-08-17T04:20:49;4.15;;;3.75;;
53287;SDS011;39172;45.550;12.072;2023-08-17T04:26:51;4.60;;;4.20;;
53287;SDS011;39172;45.550;12.072;2023-08-17T04:32:53;3.95;;;3.65;;
53287;SDS011;39172;45.550;12.072;2023-08-17T04:38:54;4.30;;;3.90;;
53287;SDS011;39172;45.550;12.072;2023-08-17T04:44:55;4.05;;;3.75;;
53287;SDS011;39172;45.550;12.072;2023-08-17T04:50:58;4.10;;;3.70;;
53287;SDS011;39172;45.550;12.072;2023-08-17T04:56:59;3.65;;;3.35;;
53287;SDS011;39172;45.550;12.072;2023-08-17T05:03:01;3.97;;;3.67;;
53287;SDS011;39172;45.550;12.072;2023-08-17T05:09:08;4.07;;;3.78;;
53287;SDS011;39172;45.550;12.072;2023-08-17T05:15:09;4.68;;;4.28;;
53287;SDS011;39172;45.550;12.072;2023-08-17T05:21:11;4.68;;;4.28;;
53287;SDS011;39172;45.550;12.072;2023-08-17T05:27:14;4.53;;;4.22;;
53287;SDS011;39172;45.550;12.072;2023-08-17T05:33:15;5.10;;;4.60;;
53287;SDS011;39172;45.550;12.072;2023-08-17T05:39:17;4.60;;;4.25;;
53287;SDS011;39172;45.550;12.072;2023-08-17T05:45:20;4.78;;;4.38;;
53287;SDS011;39172;45.550;12.072;2023-08-17T05:51:22;4.63;;;4.22;;
53287;SDS011;39172;45.550;12.072;2023-08-17T05:57:22;4.78;;;4.38;;
53287;SDS011;39172;45.550;12.072;2023-08-17T06:03:24;5.07;;;4.57;;
53287;SDS011;39172;45.550;12.072;2023-08-17T06:09:26;4.75;;;4.35;;
53287;SDS011;39172;45.550;12.072;2023-08-17T06:15:27;5.10;;;4.57;;
53287;SDS011;39172;45.550;12.072;2023-08-17T06:21:32;5.25;;;4.85;;
53287;SDS011;39172;45.550;12.072;2023-08-17T06:27:33;5.55;;;5.05;;
53287;SDS011;39172;45.550;12.072;2023-08-17T06:33:35;6.40;;;5.10;;
53287;SDS011;39172;45.550;12.072;2023-08-17T06:39:36;5.53;;;5.03;;
53287;SDS011;39172;45.550;12.072;2023-08-17T06:45:37;5.78;;;5.05;;
53287;SDS011;39172;45.550;12.072;2023-08-17T06:51:39;5.70;;;5.20;;
53287;SDS011;39172;45.550;12.072;2023-08-17T06:57:40;6.70;;;5.93;;
53287;SDS011;39172;45.550;12.072;2023-08-17T07:03:41;7.07;;;6.40;;
53287;SDS011;39172;45.550;12.072;2023-08-17T07:09:44;5.70;;;5.20;;
53287;SDS011;39172;45.550;12.072;2023-08-17T07:15:46;7.00;;;6.20;;
53287;SDS011;39172;45.550;12.072;2023-08-17T07:21:47;6.20;;;5.60;;
53287;SDS011;39172;45.550;12.072;2023-08-17T07:27:49;5.60;;;5.10;;
53287;SDS011;39172;45.550;12.072;2023-08-17T07:33:52;6.32;;;5.38;;
53287;SDS011;39172;45.550;12.072;2023-08-17T07:39:54;5.57;;;5.00;;
53287;SDS011;39172;45.550;12.072;2023-08-17T07:45:56;5.95;;;5.30;;
53287;SDS011;39172;45.550;12.072;2023-08-17T07:51:57;5.50;;;5.00;;
53287;SDS011;39172;45.550;12.072;2023-08-17T07:57:58;5.53;;;5.03;;
53287;SDS011;39172;45.550;12.072;2023-08-17T08:04:00;5.68;;;5.05;;
53287;SDS011;39172;45.550;12.072;2023-08-17T08:10:02;6.00;;;5.40;;
53287;SDS011;39172;45.550;12.072;2023-08-17T08:16:03;5.68;;;5.15;;
53287;SDS011;39172;45.550;12.072;2023-08-17T08:22:04;5.78;;;5.28;;
53287;SDS011;39172;45.550;12.072;2023-08-17T08:28:05;5.78;;;5.28;;
53287;SDS011;39172;45.550;12.072;2023-08-17T08:34:07;7.18;;;5.40;;
53287;SDS011;39172;45.550;12.072;2023-08-17T08:40:11;5.80;;;5.20;;
53287;SDS011;39172;45.550;12.072;2023-08-17T08:46:17;6.18;;;5.57;;
53287;SDS011;39172;45.550;12.072;2023-08-17T08:52:22;4.97;;;4.47;;
53287;SDS011;39172;45.550;12.072;2023-08-17T08:58:25;6.00;;;5.35;;
53287;SDS011;39172;45.550;12.072;2023-08-17T09:04:29;6.07;;;5.53;;
53287;SDS011;39172;45.550;12.072;2023-08-17T09:10:30;5.47;;;4.88;;
53287;SDS011;39172;45.550;12.072;2023-08-17T09:16:33;4.80;;;4.25;;
53287;SDS011;39172;45.550;12.072;2023-08-17T09:28:38;4.50;;;4.10;;
53287;SDS011;39172;45.550;12.072;2023-08-17T09:34:43;4.43;;;4.07;;
53287;SDS011;39172;45.550;12.072;2023-08-17T09:40:45;5.20;;;4.70;;
53287;SDS011;39172;45.550;12.072;2023-08-17T09:46:46;4.90;;;4.50;;
53287;SDS011;39172;45.550;12.072;2023-08-17T09:52:54;5.30;;;4.90;;
53287;SDS011;39172;45.550;12.072;2023-08-17T09:58:55;4.47;;;4.07;;
53287;SDS011;39172;45.550;12.072;2023-08-17T10:05:02;4.82;;;4.43;;
53287;SDS011;39172;45.550;12.072;2023-08-17T10:11:05;5.13;;;4.72;;
53287;SDS011;39172;45.550;12.072;2023-08-17T10:17:14;4.97;;;4.47;;
53287;SDS011;39172;45.550;12.072;2023-08-17T10:23:20;4.70;;;4.30;;
53287;SDS011;39172;45.550;12.072;2023-08-17T10:29:25;4.85;;;4.45;;
53287;SDS011;39172;45.550;12.072;2023-08-17T10:35:26;4.57;;;4.15;;
53287;SDS011;39172;45.550;12.072;2023-08-17T10:41:28;5.10;;;4.60;;
53287;SDS011;39172;45.550;12.072;2023-08-17T10:47:31;5.20;;;4.80;;
53287;SDS011;39172;45.550;12.072;2023-08-17T10:53:36;4.95;;;4.45;;
53287;SDS011;39172;45.550;12.072;2023-08-17T10:59:41;4.70;;;4.20;;
53287;SDS011;39172;45.550;12.072;2023-08-17T11:05:47;4.90;;;4.50;;
53287;SDS011;39172;45.550;12.072;2023-08-17T11:12:24;4.18;;;3.88;;
53287;SDS011;39172;45.550;12.072;2023-08-17T11:24:26;4.20;;;3.80;;
53287;SDS011;39172;45.550;12.072;2023-08-17T11:30:29;5.50;;;5.00;;
53287;SDS011;39172;45.550;12.072;2023-08-17T11:36:32;5.15;;;3.80;;
53287;SDS011;39172;45.550;12.072;2023-08-17T11:42:33;4.70;;;4.13;;
53287;SDS011;39172;45.550;12.072;2023-08-17T11:48:34;4.80;;;4.40;;
53287;SDS011;39172;45.550;12.072;2023-08-17T11:54:39;4.95;;;4.55;;
53287;SDS011;39172;45.550;12.072;2023-08-17T12:00:41;4.50;;;4.10;;
53287;SDS011;39172;45.550;12.072;2023-08-17T12:06:46;4.70;;;4.30;;
53287;SDS011;39172;45.550;12.072;2023-08-17T12:12:47;5.60;;;5.10;;
53287;SDS011;39172;45.550;12.072;2023-08-17T12:18:49;5.72;;;5.22;;
53287;SDS011;39172;45.550;12.072;2023-08-17T12:24:51;5.50;;;5.00;;
53287;SDS011;39172;45.550;12.072;2023-08-17T12:30:59;6.60;;;5.13;;
53287;SDS011;39172;45.550;12.072;2023-08-17T12:37:00;5.05;;;4.60;;
53287;SDS011;39172;45.550;12.072;2023-08-17T12:43:01;5.15;;;4.68;;
53287;SDS011;39172;45.550;12.072;2023-08-17T12:49:04;5.90;;;5.30;;
53287;SDS011;39172;45.550;12.072;2023-08-17T12:55:05;4.80;;;4.40;;
53287;SDS011;39172;45.550;12.072;2023-08-17T13:01:06;4.75;;;4.35;;
53287;SDS011;39172;45.550;12.072;2023-08-17T13:07:08;4.72;;;4.28;;
53287;SDS011;39172;45.550;12.072;2023-08-17T13:13:12;8.80;;;5.25;;
53287;SDS011;39172;45.550;12.072;2023-08-17T13:19:13;6.55;;;5.90;;
53287;SDS011;39172;45.550;12.072;2023-08-17T13:25:14;6.82;;;6.22;;
53287;SDS011;39172;45.550;12.072;2023-08-17T13:31:15;6.43;;;5.82;;
53287;SDS011;39172;45.550;12.072;2023-08-17T13:37:16;7.18;;;5.68;;
53287;SDS011;39172;45.550;12.072;2023-08-17T13:43:17;6.00;;;5.43;;
53287;SDS011;39172;45.550;12.072;2023-08-17T13:49:19;6.40;;;5.80;;
53287;SDS011;39172;45.550;12.072;2023-08-17T13:55:20;5.80;;;5.30;;
53287;SDS011;39172;45.550;12.072;2023-08-17T14:01:21;6.22;;;5.65;;
53287;SDS011;39172;45.550;12.072;2023-08-17T14:07:22;7.43;;;6.72;;
53287;SDS011;39172;45.550;12.072;2023-08-17T14:13:25;6.90;;;6.30;;
53287;SDS011;39172;45.550;12.072;2023-08-17T14:19:26;7.07;;;6.32;;
53287;SDS011;39172;45.550;12.072;2023-08-17T14:25:27;7.03;;;6.43;;
53287;SDS011;39172;45.550;12.072;2023-08-17T14:31:29;6.53;;;5.93;;
53287;SDS011;39172;45.550;12.072;2023-08-17T14:37:32;6.32;;;5.72;;
53287;SDS011;39172;45.550;12.072;2023-08-17T14:43:34;5.82;;;5.32;;
53287;SDS011;39172;45.550;12.072;2023-08-17T14:49:35;5.15;;;4.65;;
53287;SDS011;39172;45.550;12.072;2023-08-17T14:55:36;5.88;;;5.22;;
53287;SDS011;39172;45.550;12.072;2023-08-17T15:01:37;7.13;;;6.50;;
53287;SDS011;39172;45.550;12.072;2023-08-17T15:07:38;6.93;;;5.97;;
53287;SDS011;39172;45.550;12.072;2023-08-17T15:13:39;6.00;;;5.40;;
53287;SDS011;39172;45.550;12.072;2023-08-17T15:19:40;6.00;;;5.40;;
53287;SDS011;39172;45.550;12.072;2023-08-17T15:25:43;5.28;;;4.72;;
53287;SDS011;39172;45.550;12.072;2023-08-17T15:31:44;5.50;;;5.00;;
53287;SDS011;39172;45.550;12.072;2023-08-17T15:37:45;5.30;;;4.80;;
53287;SDS011;39172;45.550;12.072;2023-08-17T15:43:46;5.75;;;5.03;;
53287;SDS011;39172;45.550;12.072;2023-08-17T15:49:47;6.68;;;5.55;;
53287;SDS011;39172;45.550;12.072;2023-08-17T15:55:48;5.75;;;5.25;;
53287;SDS011;39172;45.550;12.072;2023-08-17T16:01:49;5.18;;;4.78;;
53287;SDS011;39172;45.550;12.072;2023-08-17T16:07:50;5.53;;;5.03;;
53287;SDS011;39172;45.550;12.072;2023-08-17T16:13:51;5.35;;;4.95;;
53287;SDS011;39172;45.550;12.072;2023-08-17T16:19:52;5.50;;;5.10;;
53287;SDS011;39172;45.550;12.072;2023-08-17T16:26:00;6.63;;;5.43;;
53287;SDS011;39172;45.550;12.072;2023-08-17T16:32:01;5.45;;;4.95;;
53287;SDS011;39172;45.550;12.072;2023-08-17T16:38:02;6.38;;;5.30;;
53287;SDS011;39172;45.550;12.072;2023-08-17T16:44:03;5.35;;;4.85;;
53287;SDS011;39172;45.550;12.072;2023-08-17T16:50:05;6.10;;;5.50;;
53287;SDS011;39172;45.550;12.072;2023-08-17T16:56:07;5.97;;;5.25;;
53287;SDS011;39172;45.550;12.072;2023-08-17T17:02:08;4.50;;;4.10;;
53287;SDS011;39172;45.550;12.072;2023-08-17T17:08:09;4.10;;;3.72;;
53287;SDS011;39172;45.550;12.072;2023-08-17T17:14:11;3.60;;;3.30;;
53287;SDS011;39172;45.550;12.072;2023-08-17T17:20:12;3.67;;;3.38;;
53287;SDS011;39172;45.550;12.072;2023-08-17T17:26:13;4.03;;;3.38;;
53287;SDS011;39172;45.550;12.072;2023-08-17T17:32:14;3.00;;;2.65;;
53287;SDS011;39172;45.550;12.072;2023-08-17T17:38:15;3.35;;;3.05;;
53287;SDS011;39172;45.550;12.072;2023-08-17T17:44:17;3.42;;;3.13;;
53287;SDS011;39172;45.550;12.072;2023-08-17T17:50:19;3.22;;;2.58;;
53287;SDS011;39172;45.550;12.072;2023-08-17T17:56:37;3.95;;;3.65;;
53287;SDS011;39172;45.550;12.072;2023-08-17T18:02:54;4.20;;;3.80;;
53287;SDS011;39172;45.550;12.072;2023-08-17T18:08:55;3.90;;;3.60;;
53287;SDS011;39172;45.550;12.072;2023-08-17T18:14:58;3.78;;;3.47;;
53287;SDS011;39172;45.550;12.072;2023-08-17T18:21:00;4.05;;;3.70;;
53287;SDS011;39172;45.550;12.072;2023-08-17T18:27:03;3.65;;;3.35;;
53287;SDS011;39172;45.550;12.072;2023-08-17T18:33:06;3.58;;;3.28;;
53287;SDS011;39172;45.550;12.072;2023-08-17T18:39:10;3.35;;;3.05;;
53287;SDS011;39172;45.550;12.072;2023-08-17T18:45:12;4.68;;;4.28;;
53287;SDS011;39172;45.550;12.072;2023-08-17T18:51:16;4.28;;;3.97;;
53287;SDS011;39172;45.550;12.072;2023-08-17T18:57:17;4.65;;;4.20;;
53287;SDS011;39172;45.550;12.072;2023-08-17T19:03:19;3.80;;;3.50;;
53287;SDS011;39172;45.550;12.072;2023-08-17T19:09:21;4.20;;;3.55;;
53287;SDS011;39172;45.550;12.072;2023-08-17T19:15:22;4.20;;;3.80;;
53287;SDS011;39172;45.550;12.072;2023-08-17T19:21:26;3.95;;;3.65;;
53287;SDS011;39172;45.550;12.072;2023-08-17T19:27:28;3.70;;;3.40;;
53287;SDS011;39172;45.550;12.072;2023-08-17T19:33:30;3.42;;;3.08;;
53287;SDS011;39172;45.550;12.072;2023-08-17T19:39:31;3.47;;;3.17;;
53287;SDS011;39172;45.550;12.072;2023-08-17T19:45:32;3.50;;;3.20;;
53287;SDS011;39172;45.550;12.072;2023-08-17T19:51:34;3.30;;;3.00;;
53287;SDS011;39172;45.550;12.072;2023-08-17T19:57:35;4.00;;;3.60;;
53287;SDS011;39172;45.550;12.072;2023-08-17T20:03:36;3.42;;;3.13;;
53287;SDS011;39172;45.550;12.072;2023-08-17T20:09:37;3.30;;;3.00;;
53287;SDS011;39172;45.550;12.072;2023-08-17T20:15:39;3.60;;;3.30;;
53287;SDS011;39172;45.550;12.072;2023-08-17T20:21:40;3.25;;;3.05;;
53287;SDS011;39172;45.550;12.072;2023-08-17T20:27:41;4.00;;;3.70;;
53287;SDS011;39172;45.550;12.072;2023-08-17T20:33:47;3.45;;;3.15;;
53287;SDS011;39172;45.550;12.072;2023-08-17T20:39:48;3.13;;;2.83;;
53287;SDS011;39172;45.550;12.072;2023-08-17T20:45:49;3.28;;;2.97;;
53287;SDS011;39172;45.550;12.072;2023-08-17T20:51:52;3.00;;;2.80;;
53287;SDS011;39172;45.550;12.072;2023-08-17T20:57:57;3.92;;;3.63;;
53287;SDS011;39172;45.550;12.072;2023-08-17T21:03:58;4.07;;;3.72;;
53287;SDS011;39172;45.550;12.072;2023-08-17T21:09:59;5.60;;;4.97;;
53287;SDS011;39172;45.550;12.072;2023-08-17T21:16:06;4.78;;;4.38;;
53287;SDS011;39172;45.550;12.072;2023-08-17T21:22:09;4.50;;;4.10;;
53287;SDS011;39172;45.550;12.072;2023-08-17T21:28:10;3.90;;;3.60;;
53287;SDS011;39172;45.550;12.072;2023-08-17T21:34:16;3.10;;;2.90;;
53287;SDS011;39172;45.550;12.072;2023-08-17T21:40:21;3.20;;;2.90;;
53287;SDS011;39172;45.550;12.072;2023-08-17T21:46:22;2.63;;;2.42;;
53287;SDS011;39172;45.550;12.072;2023-08-17T21:52:25;2.88;;;2.50;;
53287;SDS011;39172;45.550;12.072;2023-08-17T21:58:26;2.70;;;2.40;;
53287;SDS011;39172;45.550;12.072;2023-08-17T22:04:29;2.88;;;2.60;;
53287;SDS011;39172;45.550;12.072;2023-08-17T22:10:33;3.92;;;2.65;;
53287;SDS011;39172;45.550;12.072;2023-08-17T22:16:33;2.50;;;2.03;;
53287;SDS011;39172;45.550;12.072;2023-08-17T22:22:35;2.22;;;1.90;;
53287;SDS011;39172;45.550;12.072;2023-08-17T22:28:40;1.92;;;1.73;;
53287;SDS011;39172;45.550;12.072;2023-08-17T22:34:41;1.98;;;1.60;;
53287;SDS011;39172;45.550;12.072;2023-08-17T22:40:42;1.58;;;1.48;;
53287;SDS011;39172;45.550;12.072;2023-08-17T22:46:46;2.00;;;1.80;;
53287;SDS011;39172;45.550;12.072;2023-08-17T22:52:48;2.90;;;1.70;;
53287;SDS011;39172;45.550;12.072;2023-08-17T22:58:49;2.15;;;1.95;;
53287;SDS011;39172;45.550;12.072;2023-08-17T23:04:50;2.35;;;2.15;;
53287;SDS011;39172;45.550;12.072;2023-08-17T23:10:58;3.10;;;2.10;;
53287;SDS011;39172;45.550;12.072;2023-08-17T23:23:00;3.47;;;3.00;;
53287;SDS011;39172;45.550;12.072;2023-08-17T23:29:02;3.03;;;2.72;;
53287;SDS011;39172;45.550;12.072;2023-08-17T23:35:04;3.20;;;2.90;;
53287;SDS011;39172;45.550;12.072;2023-08-17T23:41:05;3.97;;;2.90;;
53287;SDS011;39172;45.550;12.072;2023-08-17T23:47:08;2.88;;;2.60;;
53287;SDS011;39172;45.550;12.072;2023-08-17T23:53:09;2.30;;;2.10;;
53287;SDS011;39172;45.550;12.072;2023-08-17T23:59:12;2.70;;;2.42;;
